sensor_id;sensor_type;location;lat;lon;timestamp;P1;durP1;ratioP1;P2;durP2;ratioP2
35743;SDS011;21867;52.012;4.324;2022-10-16T00:02:26;5.87;;;1.87;;
35743;SDS011;21867;52.012;4.324;2022-10-16T00:04:54;2.27;;;1.77;;
35743;SDS011;21867;52.012;4.324;2022-10-16T00:07:21;2.40;;;1.80;;
35743;SDS011;21867;52.012;4.324;2022-10-16T00:09:49;4.57;;;2.70;;
35743;SDS011;21867;52.012;4.324;2022-10-16T00:12:16;4.80;;;2.90;;
35743;SDS011;21867;52.012;4.324;2022-10-16T00:14:45;5.67;;;1.97;;
35743;SDS011;21867;52.012;4.324;2022-10-16T00:17:12;1.83;;;1.73;;
35743;SDS011;21867;52.012;4.324;2022-10-16T00:19:39;4.03;;;1.90;;
35743;SDS011;21867;52.012;4.324;2022-10-16T00:22:06;6.27;;;1.90;;
35743;SDS011;21867;52.012;4.324;2022-10-16T00:24:34;1.80;;;1.70;;
35743;SDS011;21867;52.012;4.324;2022-10-16T00:27:01;3.47;;;1.90;;
35743;SDS011;21867;52.012;4.324;2022-10-16T00:29:28;3.27;;;1.57;;
35743;SDS011;21867;52.012;4.324;2022-10-16T00:31:57;2.67;;;1.90;;
35743;SDS011;21867;52.012;4.324;2022-10-16T00:34:24;4.37;;;1.20;;
35743;SDS011;21867;52.012;4.324;2022-10-16T00:36:52;1.67;;;1.47;;
35743;SDS011;21867;52.012;4.324;2022-10-16T00:39:19;3.10;;;1.60;;
35743;SDS011;21867;52.012;4.324;2022-10-16T00:41:46;2.03;;;1.70;;
35743;SDS011;21867;52.012;4.324;2022-10-16T00:47:01;1.93;;;1.73;;
35743;SDS011;21867;52.012;4.324;2022-10-16T00:49:28;2.60;;;1.70;;
35743;SDS011;21867;52.012;4.324;2022-10-16T00:51:56;2.80;;;1.60;;
35743;SDS011;21867;52.012;4.324;2022-10-16T00:54:24;2.43;;;1.73;;
35743;SDS011;21867;52.012;4.324;2022-10-16T00:56:52;2.30;;;1.80;;
35743;SDS011;21867;52.012;4.324;2022-10-16T00:59:22;3.17;;;2.37;;
35743;SDS011;21867;52.012;4.324;2022-10-16T01:01:50;3.53;;;1.83;;
35743;SDS011;21867;52.012;4.324;2022-10-16T01:04:19;6.57;;;1.90;;
35743;SDS011;21867;52.012;4.324;2022-10-16T01:06:49;3.77;;;2.17;;
35743;SDS011;21867;52.012;4.324;2022-10-16T01:09:22;3.67;;;2.10;;
35743;SDS011;21867;52.012;4.324;2022-10-16T01:11:53;4.53;;;2.10;;
35743;SDS011;21867;52.012;4.324;2022-10-16T01:14:32;12.20;;;2.27;;
35743;SDS011;21867;52.012;4.324;2022-10-16T01:17:04;2.43;;;1.90;;
35743;SDS011;21867;52.012;4.324;2022-10-16T01:19:38;4.60;;;2.27;;
35743;SDS011;21867;52.012;4.324;2022-10-16T01:22:11;1.97;;;1.67;;
35743;SDS011;21867;52.012;4.324;2022-10-16T01:24:40;4.10;;;1.90;;
35743;SDS011;21867;52.012;4.324;2022-10-16T01:27:10;2.97;;;1.90;;
35743;SDS011;21867;52.012;4.324;2022-10-16T01:29:39;2.13;;;1.90;;
35743;SDS011;21867;52.012;4.324;2022-10-16T01:32:09;2.83;;;2.20;;
35743;SDS011;21867;52.012;4.324;2022-10-16T01:34:38;4.30;;;2.13;;
35743;SDS011;21867;52.012;4.324;2022-10-16T01:37:14;3.63;;;2.00;;
35743;SDS011;21867;52.012;4.324;2022-10-16T01:39:43;2.33;;;1.93;;
35743;SDS011;21867;52.012;4.324;2022-10-16T01:42:15;2.60;;;1.37;;
35743;SDS011;21867;52.012;4.324;2022-10-16T01:44:43;3.77;;;1.80;;
35743;SDS011;21867;52.012;4.324;2022-10-16T01:47:25;3.07;;;1.80;;
35743;SDS011;21867;52.012;4.324;2022-10-16T01:50:42;2.70;;;2.10;;
35743;SDS011;21867;52.012;4.324;2022-10-16T01:53:12;2.60;;;2.00;;
35743;SDS011;21867;52.012;4.324;2022-10-16T01:55:40;3.50;;;2.53;;
35743;SDS011;21867;52.012;4.324;2022-10-16T01:58:10;4.03;;;1.90;;
35743;SDS011;21867;52.012;4.324;2022-10-16T02:00:39;4.43;;;1.97;;
35743;SDS011;21867;52.012;4.324;2022-10-16T02:03:08;2.43;;;1.77;;
35743;SDS011;21867;52.012;4.324;2022-10-16T02:05:37;2.10;;;1.80;;
35743;SDS011;21867;52.012;4.324;2022-10-16T02:08:07;2.00;;;1.73;;
35743;SDS011;21867;52.012;4.324;2022-10-16T02:10:34;3.47;;;2.10;;
35743;SDS011;21867;52.012;4.324;2022-10-16T02:13:03;2.10;;;2.00;;
35743;SDS011;21867;52.012;4.324;2022-10-16T02:15:33;2.57;;;2.23;;
35743;SDS011;21867;52.012;4.324;2022-10-16T02:18:01;2.40;;;2.20;;
35743;SDS011;21867;52.012;4.324;2022-10-16T02:20:28;3.73;;;2.27;;
35743;SDS011;21867;52.012;4.324;2022-10-16T02:22:59;4.13;;;2.67;;
35743;SDS011;21867;52.012;4.324;2022-10-16T02:25:29;5.80;;;2.67;;
35743;SDS011;21867;52.012;4.324;2022-10-16T02:27:57;2.50;;;2.30;;
35743;SDS011;21867;52.012;4.324;2022-10-16T02:30:28;3.37;;;2.53;;
35743;SDS011;21867;52.012;4.324;2022-10-16T02:32:58;2.73;;;2.50;;
35743;SDS011;21867;52.012;4.324;2022-10-16T02:35:27;4.23;;;2.80;;
35743;SDS011;21867;52.012;4.324;2022-10-16T02:37:55;3.83;;;3.00;;
35743;SDS011;21867;52.012;4.324;2022-10-16T02:40:22;2.07;;;1.93;;
35743;SDS011;21867;52.012;4.324;2022-10-16T02:42:51;2.23;;;1.97;;
35743;SDS011;21867;52.012;4.324;2022-10-16T02:45:19;2.47;;;2.27;;
35743;SDS011;21867;52.012;4.324;2022-10-16T02:47:46;7.00;;;2.00;;
35743;SDS011;21867;52.012;4.324;2022-10-16T02:50:21;3.53;;;2.30;;
35743;SDS011;21867;52.012;4.324;2022-10-16T02:52:48;2.87;;;2.17;;
35743;SDS011;21867;52.012;4.324;2022-10-16T02:55:15;2.73;;;1.80;;
35743;SDS011;21867;52.012;4.324;2022-10-16T02:57:43;4.30;;;2.10;;
35743;SDS011;21867;52.012;4.324;2022-10-16T03:00:12;3.00;;;1.63;;
35743;SDS011;21867;52.012;4.324;2022-10-16T03:02:40;3.00;;;1.90;;
35743;SDS011;21867;52.012;4.324;2022-10-16T03:05:07;2.63;;;2.20;;
35743;SDS011;21867;52.012;4.324;2022-10-16T03:07:36;3.57;;;2.13;;
35743;SDS011;21867;52.012;4.324;2022-10-16T03:10:04;3.90;;;1.80;;
35743;SDS011;21867;52.012;4.324;2022-10-16T03:12:31;4.00;;;2.00;;
35743;SDS011;21867;52.012;4.324;2022-10-16T03:14:59;4.27;;;2.23;;
35743;SDS011;21867;52.012;4.324;2022-10-16T03:17:26;3.03;;;2.03;;
35743;SDS011;21867;52.012;4.324;2022-10-16T03:19:54;3.37;;;2.10;;
35743;SDS011;21867;52.012;4.324;2022-10-16T03:22:21;2.40;;;2.10;;
35743;SDS011;21867;52.012;4.324;2022-10-16T03:24:50;2.90;;;2.00;;
35743;SDS011;21867;52.012;4.324;2022-10-16T03:27:17;4.20;;;1.90;;
35743;SDS011;21867;52.012;4.324;2022-10-16T03:29:44;5.70;;;1.70;;
35743;SDS011;21867;52.012;4.324;2022-10-16T03:32:12;2.30;;;1.90;;
35743;SDS011;21867;52.012;4.324;2022-10-16T03:34:39;3.90;;;1.80;;
35743;SDS011;21867;52.012;4.324;2022-10-16T03:37:06;2.93;;;1.70;;
35743;SDS011;21867;52.012;4.324;2022-10-16T03:39:33;4.30;;;2.40;;
35743;SDS011;21867;52.012;4.324;2022-10-16T03:42:02;2.47;;;1.47;;
35743;SDS011;21867;52.012;4.324;2022-10-16T03:44:29;2.30;;;2.10;;
35743;SDS011;21867;52.012;4.324;2022-10-16T03:46:57;2.63;;;2.13;;
35743;SDS011;21867;52.012;4.324;2022-10-16T03:49:24;5.40;;;2.00;;
35743;SDS011;21867;52.012;4.324;2022-10-16T03:51:52;2.67;;;1.97;;
35743;SDS011;21867;52.012;4.324;2022-10-16T03:54:19;4.40;;;2.40;;
35743;SDS011;21867;52.012;4.324;2022-10-16T03:56:46;3.27;;;2.00;;
35743;SDS011;21867;52.012;4.324;2022-10-16T03:59:15;3.17;;;1.93;;
35743;SDS011;21867;52.012;4.324;2022-10-16T04:01:42;2.67;;;1.50;;
35743;SDS011;21867;52.012;4.324;2022-10-16T04:21:14;2.80;;;2.10;;
35743;SDS011;21867;52.012;4.324;2022-10-16T04:23:41;1.77;;;1.67;;
35743;SDS011;21867;52.012;4.324;2022-10-16T04:26:08;2.97;;;1.80;;
35743;SDS011;21867;52.012;4.324;2022-10-16T04:28:36;2.50;;;1.80;;
35743;SDS011;21867;52.012;4.324;2022-10-16T04:31:03;2.30;;;1.70;;
35743;SDS011;21867;52.012;4.324;2022-10-16T04:33:30;2.80;;;2.17;;
35743;SDS011;21867;52.012;4.324;2022-10-16T04:35:58;3.23;;;1.83;;
35743;SDS011;21867;52.012;4.324;2022-10-16T04:38:27;4.30;;;2.40;;
35743;SDS011;21867;52.012;4.324;2022-10-16T04:40:54;6.27;;;2.00;;
35743;SDS011;21867;52.012;4.324;2022-10-16T04:43:22;2.57;;;1.80;;
35743;SDS011;21867;52.012;4.324;2022-10-16T04:45:49;2.50;;;2.00;;
35743;SDS011;21867;52.012;4.324;2022-10-16T04:48:16;2.67;;;2.47;;
35743;SDS011;21867;52.012;4.324;2022-10-16T04:50:44;3.40;;;2.03;;
35743;SDS011;21867;52.012;4.324;2022-10-16T04:53:11;3.50;;;1.93;;
35743;SDS011;21867;52.012;4.324;2022-10-16T04:55:40;3.83;;;2.07;;
35743;SDS011;21867;52.012;4.324;2022-10-16T04:58:07;5.07;;;2.80;;
35743;SDS011;21867;52.012;4.324;2022-10-16T05:00:35;2.90;;;1.83;;
35743;SDS011;21867;52.012;4.324;2022-10-16T05:03:04;4.13;;;2.10;;
35743;SDS011;21867;52.012;4.324;2022-10-16T05:05:32;4.30;;;2.00;;
35743;SDS011;21867;52.012;4.324;2022-10-16T05:07:59;2.10;;;1.90;;
35743;SDS011;21867;52.012;4.324;2022-10-16T05:10:26;3.23;;;2.30;;
35743;SDS011;21867;52.012;4.324;2022-10-16T05:12:57;4.67;;;2.00;;
35743;SDS011;21867;52.012;4.324;2022-10-16T05:15:24;5.53;;;2.37;;
35743;SDS011;21867;52.012;4.324;2022-10-16T05:18:07;6.30;;;2.80;;
35743;SDS011;21867;52.012;4.324;2022-10-16T05:20:35;3.37;;;1.90;;
35743;SDS011;21867;52.012;4.324;2022-10-16T05:23:02;2.67;;;2.03;;
35743;SDS011;21867;52.012;4.324;2022-10-16T05:25:29;3.80;;;2.10;;
35743;SDS011;21867;52.012;4.324;2022-10-16T05:27:58;1.80;;;1.67;;
35743;SDS011;21867;52.012;4.324;2022-10-16T05:30:25;2.83;;;2.03;;
35743;SDS011;21867;52.012;4.324;2022-10-16T05:32:53;6.07;;;2.20;;
35743;SDS011;21867;52.012;4.324;2022-10-16T05:35:20;4.17;;;2.07;;
35743;SDS011;21867;52.012;4.324;2022-10-16T05:37:48;3.50;;;2.30;;
35743;SDS011;21867;52.012;4.324;2022-10-16T05:40:16;4.17;;;2.50;;
35743;SDS011;21867;52.012;4.324;2022-10-16T05:42:43;3.73;;;2.00;;
35743;SDS011;21867;52.012;4.324;2022-10-16T05:45:12;6.57;;;2.37;;
35743;SDS011;21867;52.012;4.324;2022-10-16T05:47:39;3.67;;;2.10;;
35743;SDS011;21867;52.012;4.324;2022-10-16T05:50:06;4.90;;;2.23;;
35743;SDS011;21867;52.012;4.324;2022-10-16T05:52:34;6.73;;;2.40;;
35743;SDS011;21867;52.012;4.324;2022-10-16T05:55:01;3.53;;;2.13;;
35743;SDS011;21867;52.012;4.324;2022-10-16T05:57:28;8.07;;;2.50;;
35743;SDS011;21867;52.012;4.324;2022-10-16T05:59:56;3.40;;;2.20;;
35743;SDS011;21867;52.012;4.324;2022-10-16T06:02:24;6.23;;;2.37;;
35743;SDS011;21867;52.012;4.324;2022-10-16T06:04:51;3.43;;;2.40;;
35743;SDS011;21867;52.012;4.324;2022-10-16T06:07:19;7.63;;;2.50;;
35743;SDS011;21867;52.012;4.324;2022-10-16T06:09:47;3.47;;;2.20;;
35743;SDS011;21867;52.012;4.324;2022-10-16T06:12:15;7.23;;;2.27;;
35743;SDS011;21867;52.012;4.324;2022-10-16T06:14:43;4.80;;;2.10;;
35743;SDS011;21867;52.012;4.324;2022-10-16T06:17:16;5.67;;;2.03;;
35743;SDS011;21867;52.012;4.324;2022-10-16T06:19:45;2.93;;;1.77;;
35743;SDS011;21867;52.012;4.324;2022-10-16T06:22:12;2.93;;;1.77;;
35743;SDS011;21867;52.012;4.324;2022-10-16T06:24:39;3.33;;;2.13;;
35743;SDS011;21867;52.012;4.324;2022-10-16T06:27:06;7.77;;;1.90;;
35743;SDS011;21867;52.012;4.324;2022-10-16T06:29:33;10.73;;;2.40;;
35743;SDS011;21867;52.012;4.324;2022-10-16T06:32:01;3.57;;;1.93;;
35743;SDS011;21867;52.012;4.324;2022-10-16T06:34:28;6.53;;;2.60;;
35743;SDS011;21867;52.012;4.324;2022-10-16T06:36:56;3.57;;;2.20;;
35743;SDS011;21867;52.012;4.324;2022-10-16T06:39:24;4.33;;;1.93;;
35743;SDS011;21867;52.012;4.324;2022-10-16T06:41:51;6.73;;;2.37;;
35743;SDS011;21867;52.012;4.324;2022-10-16T06:44:19;7.50;;;2.10;;
35743;SDS011;21867;52.012;4.324;2022-10-16T06:46:46;5.47;;;2.10;;
35743;SDS011;21867;52.012;4.324;2022-10-16T06:49:13;3.00;;;2.03;;
35743;SDS011;21867;52.012;4.324;2022-10-16T06:51:41;4.63;;;1.80;;
35743;SDS011;21867;52.012;4.324;2022-10-16T06:54:10;4.13;;;1.57;;
35743;SDS011;21867;52.012;4.324;2022-10-16T06:56:37;3.40;;;2.03;;
35743;SDS011;21867;52.012;4.324;2022-10-16T06:59:04;4.97;;;2.13;;
35743;SDS011;21867;52.012;4.324;2022-10-16T07:01:32;4.27;;;1.80;;
35743;SDS011;21867;52.012;4.324;2022-10-16T07:03:59;3.47;;;1.97;;
35743;SDS011;21867;52.012;4.324;2022-10-16T07:06:26;8.37;;;2.67;;
35743;SDS011;21867;52.012;4.324;2022-10-16T07:08:54;4.67;;;1.97;;
35743;SDS011;21867;52.012;4.324;2022-10-16T07:11:23;7.17;;;3.60;;
35743;SDS011;21867;52.012;4.324;2022-10-16T07:13:50;10.70;;;2.53;;
35743;SDS011;21867;52.012;4.324;2022-10-16T07:16:22;5.10;;;2.70;;
35743;SDS011;21867;52.012;4.324;2022-10-16T07:18:49;4.63;;;2.33;;
35743;SDS011;21867;52.012;4.324;2022-10-16T07:21:21;6.47;;;2.60;;
35743;SDS011;21867;52.012;4.324;2022-10-16T07:23:49;4.33;;;2.43;;
35743;SDS011;21867;52.012;4.324;2022-10-16T07:26:17;6.60;;;1.90;;
35743;SDS011;21867;52.012;4.324;2022-10-16T07:28:46;5.97;;;2.07;;
35743;SDS011;21867;52.012;4.324;2022-10-16T07:31:13;7.43;;;2.67;;
35743;SDS011;21867;52.012;4.324;2022-10-16T07:33:41;7.43;;;2.10;;
35743;SDS011;21867;52.012;4.324;2022-10-16T07:36:09;5.47;;;2.40;;
35743;SDS011;21867;52.012;4.324;2022-10-16T07:38:41;5.90;;;2.40;;
35743;SDS011;21867;52.012;4.324;2022-10-16T07:41:09;6.63;;;2.57;;
35743;SDS011;21867;52.012;4.324;2022-10-16T07:43:37;7.57;;;2.57;;
35743;SDS011;21867;52.012;4.324;2022-10-16T07:46:06;7.80;;;2.30;;
35743;SDS011;21867;52.012;4.324;2022-10-16T07:48:33;9.00;;;2.90;;
35743;SDS011;21867;52.012;4.324;2022-10-16T07:51:01;8.13;;;2.43;;
35743;SDS011;21867;52.012;4.324;2022-10-16T07:53:29;3.00;;;2.20;;
35743;SDS011;21867;52.012;4.324;2022-10-16T07:55:57;6.80;;;2.60;;
35743;SDS011;21867;52.012;4.324;2022-10-16T07:58:24;10.40;;;2.47;;
35743;SDS011;21867;52.012;4.324;2022-10-16T08:00:51;9.13;;;2.67;;
35743;SDS011;21867;52.012;4.324;2022-10-16T08:03:20;5.90;;;2.67;;
35743;SDS011;21867;52.012;4.324;2022-10-16T08:05:47;6.87;;;2.60;;
35743;SDS011;21867;52.012;4.324;2022-10-16T08:08:15;8.93;;;2.90;;
35743;SDS011;21867;52.012;4.324;2022-10-16T08:10:42;6.47;;;2.20;;
35743;SDS011;21867;52.012;4.324;2022-10-16T08:13:09;9.00;;;2.27;;
35743;SDS011;21867;52.012;4.324;2022-10-16T08:15:37;5.60;;;2.33;;
35743;SDS011;21867;52.012;4.324;2022-10-16T08:18:04;5.77;;;2.00;;
35743;SDS011;21867;52.012;4.324;2022-10-16T08:20:33;7.90;;;2.60;;
35743;SDS011;21867;52.012;4.324;2022-10-16T08:23:00;4.73;;;1.93;;
35743;SDS011;21867;52.012;4.324;2022-10-16T08:25:28;6.83;;;2.17;;
35743;SDS011;21867;52.012;4.324;2022-10-16T08:27:55;7.30;;;3.07;;
35743;SDS011;21867;52.012;4.324;2022-10-16T08:30:23;9.13;;;2.90;;
35743;SDS011;21867;52.012;4.324;2022-10-16T08:32:50;8.03;;;2.23;;
35743;SDS011;21867;52.012;4.324;2022-10-16T08:35:17;7.00;;;2.70;;
35743;SDS011;21867;52.012;4.324;2022-10-16T08:37:46;9.23;;;2.33;;
35743;SDS011;21867;52.012;4.324;2022-10-16T08:40:16;7.20;;;2.37;;
35743;SDS011;21867;52.012;4.324;2022-10-16T08:42:47;9.97;;;2.57;;
35743;SDS011;21867;52.012;4.324;2022-10-16T08:45:21;11.23;;;2.90;;
35743;SDS011;21867;52.012;4.324;2022-10-16T08:47:53;7.87;;;2.60;;
35743;SDS011;21867;52.012;4.324;2022-10-16T08:50:25;7.77;;;2.70;;
35743;SDS011;21867;52.012;4.324;2022-10-16T08:52:54;5.63;;;2.50;;
35743;SDS011;21867;52.012;4.324;2022-10-16T08:55:28;8.07;;;3.10;;
35743;SDS011;21867;52.012;4.324;2022-10-16T08:57:56;5.53;;;2.57;;
35743;SDS011;21867;52.012;4.324;2022-10-16T09:00:23;5.93;;;3.10;;
35743;SDS011;21867;52.012;4.324;2022-10-16T09:02:52;10.07;;;2.43;;
35743;SDS011;21867;52.012;4.324;2022-10-16T09:05:22;8.80;;;2.47;;
35743;SDS011;21867;52.012;4.324;2022-10-16T09:07:55;11.70;;;3.07;;
35743;SDS011;21867;52.012;4.324;2022-10-16T09:10:33;10.50;;;2.67;;
35743;SDS011;21867;52.012;4.324;2022-10-16T09:13:03;4.73;;;2.13;;
35743;SDS011;21867;52.012;4.324;2022-10-16T09:15:39;5.83;;;2.83;;
35743;SDS011;21867;52.012;4.324;2022-10-16T09:18:09;8.00;;;2.63;;
35743;SDS011;21867;52.012;4.324;2022-10-16T09:20:42;9.17;;;2.50;;
35743;SDS011;21867;52.012;4.324;2022-10-16T09:23:14;5.40;;;3.33;;
35743;SDS011;21867;52.012;4.324;2022-10-16T09:25:43;5.93;;;2.67;;
35743;SDS011;21867;52.012;4.324;2022-10-16T09:28:11;11.17;;;2.63;;
35743;SDS011;21867;52.012;4.324;2022-10-16T09:30:38;12.93;;;3.40;;
35743;SDS011;21867;52.012;4.324;2022-10-16T09:33:06;6.30;;;2.40;;
35743;SDS011;21867;52.012;4.324;2022-10-16T09:35:35;6.80;;;2.60;;
35743;SDS011;21867;52.012;4.324;2022-10-16T09:38:03;10.03;;;2.70;;
35743;SDS011;21867;52.012;4.324;2022-10-16T09:40:33;9.93;;;2.97;;
35743;SDS011;21867;52.012;4.324;2022-10-16T09:43:02;11.17;;;3.13;;
35743;SDS011;21867;52.012;4.324;2022-10-16T09:45:30;11.60;;;2.87;;
35743;SDS011;21867;52.012;4.324;2022-10-16T09:47:57;7.63;;;2.33;;
35743;SDS011;21867;52.012;4.324;2022-10-16T09:50:26;6.77;;;2.37;;
35743;SDS011;21867;52.012;4.324;2022-10-16T09:53:04;8.70;;;2.63;;
35743;SDS011;21867;52.012;4.324;2022-10-16T09:55:32;10.83;;;3.60;;
35743;SDS011;21867;52.012;4.324;2022-10-16T09:58:00;14.53;;;3.60;;
35743;SDS011;21867;52.012;4.324;2022-10-16T10:00:27;10.63;;;2.57;;
35743;SDS011;21867;52.012;4.324;2022-10-16T10:02:54;8.57;;;2.90;;
35743;SDS011;21867;52.012;4.324;2022-10-16T10:05:22;9.60;;;2.70;;
35743;SDS011;21867;52.012;4.324;2022-10-16T10:07:54;10.40;;;3.10;;
35743;SDS011;21867;52.012;4.324;2022-10-16T10:10:23;8.20;;;2.93;;
35743;SDS011;21867;52.012;4.324;2022-10-16T10:12:52;10.33;;;3.30;;
35743;SDS011;21867;52.012;4.324;2022-10-16T10:15:19;11.23;;;2.63;;
35743;SDS011;21867;52.012;4.324;2022-10-16T10:17:47;12.87;;;2.87;;
35743;SDS011;21867;52.012;4.324;2022-10-16T10:20:18;11.57;;;3.20;;
35743;SDS011;21867;52.012;4.324;2022-10-16T10:22:48;12.50;;;2.97;;
35743;SDS011;21867;52.012;4.324;2022-10-16T10:25:19;8.33;;;2.53;;
35743;SDS011;21867;52.012;4.324;2022-10-16T10:27:55;12.10;;;3.47;;
35743;SDS011;21867;52.012;4.324;2022-10-16T10:30:24;12.50;;;3.37;;
35743;SDS011;21867;52.012;4.324;2022-10-16T10:32:55;12.70;;;3.27;;
35743;SDS011;21867;52.012;4.324;2022-10-16T10:35:29;15.23;;;3.53;;
35743;SDS011;21867;52.012;4.324;2022-10-16T10:38:04;10.20;;;3.37;;
35743;SDS011;21867;52.012;4.324;2022-10-16T10:40:40;9.00;;;2.90;;
35743;SDS011;21867;52.012;4.324;2022-10-16T10:43:12;7.57;;;2.50;;
35743;SDS011;21867;52.012;4.324;2022-10-16T10:45:43;9.10;;;2.77;;
35743;SDS011;21867;52.012;4.324;2022-10-16T10:51:00;8.43;;;2.17;;
35743;SDS011;21867;52.012;4.324;2022-10-16T10:53:35;6.90;;;2.77;;
35743;SDS011;21867;52.012;4.324;2022-10-16T10:56:06;5.87;;;2.50;;
35743;SDS011;21867;52.012;4.324;2022-10-16T11:01:33;9.27;;;2.40;;
35743;SDS011;21867;52.012;4.324;2022-10-16T11:04:09;8.23;;;2.50;;
35743;SDS011;21867;52.012;4.324;2022-10-16T11:06:39;8.97;;;2.50;;
35743;SDS011;21867;52.012;4.324;2022-10-16T11:09:09;9.37;;;2.77;;
35743;SDS011;21867;52.012;4.324;2022-10-16T11:11:40;12.10;;;2.93;;
35743;SDS011;21867;52.012;4.324;2022-10-16T11:14:10;16.90;;;2.80;;
35743;SDS011;21867;52.012;4.324;2022-10-16T11:16:41;9.87;;;2.80;;
35743;SDS011;21867;52.012;4.324;2022-10-16T11:19:11;10.70;;;2.97;;
35743;SDS011;21867;52.012;4.324;2022-10-16T11:21:44;13.60;;;2.90;;
35743;SDS011;21867;52.012;4.324;2022-10-16T11:24:14;6.77;;;2.43;;
35743;SDS011;21867;52.012;4.324;2022-10-16T11:26:43;12.57;;;3.13;;
35743;SDS011;21867;52.012;4.324;2022-10-16T11:29:13;10.53;;;2.93;;
35743;SDS011;21867;52.012;4.324;2022-10-16T11:31:46;10.97;;;2.60;;
35743;SDS011;21867;52.012;4.324;2022-10-16T11:34:17;9.60;;;2.53;;
35743;SDS011;21867;52.012;4.324;2022-10-16T11:36:49;11.63;;;2.87;;
35743;SDS011;21867;52.012;4.324;2022-10-16T11:39:19;9.70;;;3.27;;
35743;SDS011;21867;52.012;4.324;2022-10-16T11:41:48;7.40;;;2.67;;
35743;SDS011;21867;52.012;4.324;2022-10-16T11:44:18;10.50;;;2.80;;
35743;SDS011;21867;52.012;4.324;2022-10-16T11:46:51;9.23;;;2.73;;
35743;SDS011;21867;52.012;4.324;2022-10-16T11:49:39;6.07;;;2.10;;
35743;SDS011;21867;52.012;4.324;2022-10-16T11:52:07;8.77;;;2.50;;
35743;SDS011;21867;52.012;4.324;2022-10-16T11:54:39;10.30;;;3.17;;
35743;SDS011;21867;52.012;4.324;2022-10-16T11:57:11;6.60;;;2.47;;
35743;SDS011;21867;52.012;4.324;2022-10-16T11:59:42;12.60;;;3.17;;
35743;SDS011;21867;52.012;4.324;2022-10-16T12:02:22;10.30;;;2.90;;
35743;SDS011;21867;52.012;4.324;2022-10-16T12:04:55;7.63;;;2.60;;
35743;SDS011;21867;52.012;4.324;2022-10-16T12:07:27;11.10;;;3.27;;
35743;SDS011;21867;52.012;4.324;2022-10-16T12:10:09;6.87;;;2.67;;
35743;SDS011;21867;52.012;4.324;2022-10-16T12:12:37;8.33;;;2.73;;
35743;SDS011;21867;52.012;4.324;2022-10-16T12:15:18;8.57;;;3.03;;
35743;SDS011;21867;52.012;4.324;2022-10-16T12:18:02;10.60;;;2.60;;
35743;SDS011;21867;52.012;4.324;2022-10-16T12:20:29;6.90;;;2.00;;
35743;SDS011;21867;52.012;4.324;2022-10-16T12:22:58;4.50;;;2.13;;
35743;SDS011;21867;52.012;4.324;2022-10-16T12:25:26;10.10;;;3.07;;
35743;SDS011;21867;52.012;4.324;2022-10-16T12:27:55;9.93;;;2.50;;
35743;SDS011;21867;52.012;4.324;2022-10-16T12:30:23;12.13;;;2.97;;
35743;SDS011;21867;52.012;4.324;2022-10-16T12:32:55;9.53;;;2.47;;
35743;SDS011;21867;52.012;4.324;2022-10-16T12:35:25;6.53;;;2.13;;
35743;SDS011;21867;52.012;4.324;2022-10-16T12:37:53;7.80;;;2.57;;
35743;SDS011;21867;52.012;4.324;2022-10-16T12:40:25;11.20;;;2.97;;
35743;SDS011;21867;52.012;4.324;2022-10-16T12:42:54;8.67;;;3.33;;
35743;SDS011;21867;52.012;4.324;2022-10-16T12:45:26;7.43;;;2.60;;
35743;SDS011;21867;52.012;4.324;2022-10-16T12:47:54;12.30;;;3.33;;
35743;SDS011;21867;52.012;4.324;2022-10-16T12:50:27;6.53;;;2.53;;
35743;SDS011;21867;52.012;4.324;2022-10-16T12:52:55;7.33;;;2.50;;
35743;SDS011;21867;52.012;4.324;2022-10-16T12:55:23;9.60;;;2.57;;
35743;SDS011;21867;52.012;4.324;2022-10-16T12:57:58;9.87;;;2.97;;
35743;SDS011;21867;52.012;4.324;2022-10-16T13:00:28;8.43;;;2.30;;
35743;SDS011;21867;52.012;4.324;2022-10-16T13:03:08;9.20;;;2.07;;
35743;SDS011;21867;52.012;4.324;2022-10-16T13:05:46;9.47;;;3.00;;
35743;SDS011;21867;52.012;4.324;2022-10-16T13:11:03;7.10;;;2.57;;
35743;SDS011;21867;52.012;4.324;2022-10-16T13:16:17;11.00;;;3.00;;
35743;SDS011;21867;52.012;4.324;2022-10-16T13:18:50;13.50;;;2.80;;
35743;SDS011;21867;52.012;4.324;2022-10-16T13:21:29;8.90;;;2.60;;
35743;SDS011;21867;52.012;4.324;2022-10-16T13:23:59;9.80;;;2.83;;
35743;SDS011;21867;52.012;4.324;2022-10-16T13:26:32;7.77;;;2.83;;
35743;SDS011;21867;52.012;4.324;2022-10-16T13:29:03;7.60;;;2.80;;
35743;SDS011;21867;52.012;4.324;2022-10-16T13:31:30;12.03;;;3.13;;
35743;SDS011;21867;52.012;4.324;2022-10-16T13:33:58;10.00;;;2.90;;
35743;SDS011;21867;52.012;4.324;2022-10-16T13:36:27;11.67;;;2.60;;
35743;SDS011;21867;52.012;4.324;2022-10-16T13:38:59;11.67;;;3.20;;
35743;SDS011;21867;52.012;4.324;2022-10-16T13:41:27;12.53;;;3.23;;
35743;SDS011;21867;52.012;4.324;2022-10-16T13:43:54;11.47;;;2.93;;
35743;SDS011;21867;52.012;4.324;2022-10-16T13:46:35;10.27;;;3.10;;
35743;SDS011;21867;52.012;4.324;2022-10-16T13:49:19;8.93;;;2.97;;
35743;SDS011;21867;52.012;4.324;2022-10-16T13:51:55;12.17;;;2.77;;
35743;SDS011;21867;52.012;4.324;2022-10-16T13:54:24;6.73;;;2.20;;
35743;SDS011;21867;52.012;4.324;2022-10-16T13:56:51;14.27;;;3.17;;
35743;SDS011;21867;52.012;4.324;2022-10-16T13:59:35;7.97;;;2.77;;
35743;SDS011;21867;52.012;4.324;2022-10-16T14:02:05;12.30;;;3.00;;
35743;SDS011;21867;52.012;4.324;2022-10-16T14:04:37;7.87;;;2.50;;
35743;SDS011;21867;52.012;4.324;2022-10-16T14:07:11;12.47;;;3.53;;
35743;SDS011;21867;52.012;4.324;2022-10-16T14:09:47;9.53;;;2.60;;
35743;SDS011;21867;52.012;4.324;2022-10-16T14:12:15;7.67;;;3.23;;
35743;SDS011;21867;52.012;4.324;2022-10-16T14:14:42;14.03;;;3.57;;
35743;SDS011;21867;52.012;4.324;2022-10-16T14:17:13;8.73;;;2.77;;
35743;SDS011;21867;52.012;4.324;2022-10-16T14:19:44;7.67;;;2.87;;
35743;SDS011;21867;52.012;4.324;2022-10-16T14:22:30;4.73;;;2.00;;
35743;SDS011;21867;52.012;4.324;2022-10-16T14:24:57;9.83;;;2.50;;
35743;SDS011;21867;52.012;4.324;2022-10-16T14:27:26;8.43;;;2.77;;
35743;SDS011;21867;52.012;4.324;2022-10-16T14:30:05;7.83;;;2.83;;
35743;SDS011;21867;52.012;4.324;2022-10-16T14:32:35;10.07;;;3.07;;
35743;SDS011;21867;52.012;4.324;2022-10-16T14:35:02;9.43;;;3.17;;
35743;SDS011;21867;52.012;4.324;2022-10-16T14:37:31;13.13;;;3.20;;
35743;SDS011;21867;52.012;4.324;2022-10-16T14:39:59;7.90;;;2.73;;
35743;SDS011;21867;52.012;4.324;2022-10-16T14:42:28;7.33;;;2.90;;
35743;SDS011;21867;52.012;4.324;2022-10-16T14:44:55;26.83;;;4.07;;
35743;SDS011;21867;52.012;4.324;2022-10-16T14:47:23;11.83;;;3.37;;
35743;SDS011;21867;52.012;4.324;2022-10-16T14:49:52;6.87;;;2.67;;
35743;SDS011;21867;52.012;4.324;2022-10-16T14:52:19;10.20;;;3.53;;
35743;SDS011;21867;52.012;4.324;2022-10-16T14:54:49;12.67;;;3.33;;
35743;SDS011;21867;52.012;4.324;2022-10-16T14:57:16;7.50;;;2.50;;
35743;SDS011;21867;52.012;4.324;2022-10-16T14:59:44;9.87;;;2.77;;
35743;SDS011;21867;52.012;4.324;2022-10-16T15:02:15;10.47;;;3.60;;
35743;SDS011;21867;52.012;4.324;2022-10-16T15:04:51;8.60;;;2.97;;
35743;SDS011;21867;52.012;4.324;2022-10-16T15:07:19;7.80;;;2.50;;
35743;SDS011;21867;52.012;4.324;2022-10-16T15:09:46;7.30;;;2.73;;
35743;SDS011;21867;52.012;4.324;2022-10-16T15:12:16;10.10;;;2.93;;
35743;SDS011;21867;52.012;4.324;2022-10-16T15:14:43;12.30;;;2.77;;
35743;SDS011;21867;52.012;4.324;2022-10-16T15:17:10;9.40;;;2.70;;
35743;SDS011;21867;52.012;4.324;2022-10-16T15:19:40;12.33;;;3.17;;
35743;SDS011;21867;52.012;4.324;2022-10-16T15:22:08;6.30;;;2.60;;
35743;SDS011;21867;52.012;4.324;2022-10-16T15:24:36;8.13;;;3.23;;
35743;SDS011;21867;52.012;4.324;2022-10-16T15:27:03;9.77;;;2.63;;
35743;SDS011;21867;52.012;4.324;2022-10-16T15:29:32;7.93;;;2.70;;
35743;SDS011;21867;52.012;4.324;2022-10-16T15:32:01;9.10;;;3.30;;